Time;durP1;ratioP1;P1;durP2;ratioP2;P2;SDS_P1;SDS_P2;PMS_P1;PMS_P2;Temp;Humidity;BMP_temperature;BMP_pressure;BME280_temperature;BME280_humidity;BME280_pressure;Samples;Min_cycle;Max_cycle;Signal;HPM_P1;HPM_P2
2022/03/26 00:00:22;;;;;;;15.35;11.00;;;8.50;66.50;;;;;;5016253;28;20705;-68
2022/03/26 00:02:51;;;;;;;12.15;9.38;;;8.50;67.90;;;;;;5015736;28;20655;-69
2022/03/26 00:05:17;;;;;;;14.73;9.68;;;8.40;68.20;;;;;;5014691;28;20193;-69
2022/03/26 00:07:44;;;;;;;15.95;9.25;;;8.40;68.40;;;;;;5016159;28;20177;-69
2022/03/26 00:10:10;;;;;;;17.60;11.40;;;8.40;68.20;;;;;;5019976;28;20592;-69
2022/03/26 00:12:36;;;;;;;15.93;10.40;;;8.30;68.00;;;;;;5035842;28;20632;-69
2022/03/26 00:15:04;;;;;;;14.38;10.15;;;8.30;68.50;;;;;;5035176;28;20908;-69
2022/03/26 00:17:30;;;;;;;13.23;8.40;;;8.30;68.40;;;;;;5035830;28;20160;-69
2022/03/26 00:19:56;;;;;;;13.10;9.73;;;8.30;68.10;;;;;;5035540;28;20182;-69
2022/03/26 00:22:21;;;;;;;12.13;9.40;;;8.30;68.10;;;;;;5035646;28;20447;-69
2022/03/26 00:24:48;;;;;;;19.07;10.90;;;8.30;68.10;;;;;;5030397;28;20272;-70
2022/03/26 00:27:14;;;;;;;15.57;10.38;;;8.20;68.90;;;;;;5035647;28;20178;-69
2022/03/26 00:29:39;;;;;;;15.27;9.77;;;8.20;69.00;;;;;;5035424;28;20652;-69
2022/03/26 00:32:06;;;;;;;20.50;10.33;;;8.20;69.00;;;;;;5035391;28;20241;-70
2022/03/26 00:34:32;;;;;;;16.20;9.45;;;8.20;68.80;;;;;;5035091;28;20523;-69
2022/03/26 00:36:58;;;;;;;17.90;9.07;;;8.20;69.70;;;;;;5035370;28;20343;-70
2022/03/26 00:39:24;;;;;;;16.80;11.65;;;8.10;70.10;;;;;;5033030;28;20520;-69
2022/03/26 00:41:50;;;;;;;10.40;9.27;;;8.00;70.40;;;;;;5015636;28;20163;-68
2022/03/26 00:44:20;;;;;;;15.00;10.90;;;8.00;70.50;;;;;;5014937;28;20172;-69
2022/03/26 00:46:47;;;;;;;16.25;9.98;;;7.90;70.80;;;;;;5015652;28;20171;-69
2022/03/26 00:49:14;;;;;;;14.50;7.82;;;7.90;71.40;;;;;;5015536;28;20566;-70
2022/03/26 00:51:40;;;;;;;13.00;10.63;;;7.90;71.70;;;;;;5023682;28;20266;-69
2022/03/26 00:54:08;;;;;;;17.50;11.18;;;7.80;72.00;;;;;;5034608;28;20170;-69
2022/03/26 00:56:37;;;;;;;21.10;13.27;;;7.70;72.10;;;;;;5033068;28;20244;-69
2022/03/26 00:59:04;;;;;;;17.77;9.27;;;7.70;72.50;;;;;;5035004;28;20229;-70
2022/03/26 01:01:31;;;;;;;21.35;14.10;;;7.60;72.70;;;;;;5034773;28;20264;-67
2022/03/26 01:03:57;;;;;;;18.80;11.48;;;7.50;73.70;;;;;;5034312;28;20187;-70
2022/03/26 01:06:23;;;;;;;24.30;12.88;;;7.40;74.10;;;;;;5034733;28;20196;-69
2022/03/26 01:08:49;;;;;;;13.67;10.20;;;7.40;74.10;;;;;;5034770;28;20228;-69
2022/03/26 01:11:16;;;;;;;18.17;11.83;;;7.30;74.50;;;;;;5024941;28;20179;-69
2022/03/26 01:13:42;;;;;;;19.55;10.93;;;7.30;74.70;;;;;;5014403;28;20808;-69
2022/03/26 01:16:08;;;;;;;18.27;10.57;;;7.30;75.20;;;;;;5014981;28;20261;-69
2022/03/26 01:18:33;;;;;;;16.93;13.47;;;7.20;75.40;;;;;;5014791;28;20172;-69
2022/03/26 01:21:00;;;;;;;20.80;10.43;;;7.20;75.60;;;;;;5013485;28;20269;-69
2022/03/26 01:23:26;;;;;;;15.25;9.98;;;7.20;75.90;;;;;;5013174;28;20649;-70
2022/03/26 01:25:52;;;;;;;17.03;11.70;;;7.10;75.90;;;;;;5022797;28;20243;-69
2022/03/26 01:28:17;;;;;;;15.27;9.88;;;7.10;76.20;;;;;;5034373;28;20260;-69
2022/03/26 01:30:43;;;;;;;15.43;8.50;;;7.10;76.00;;;;;;5033020;28;20652;-69
2022/03/26 01:33:09;;;;;;;15.27;10.37;;;7.10;75.80;;;;;;5034023;28;20175;-70
2022/03/26 01:35:35;;;;;;;14.43;8.33;;;7.10;75.60;;;;;;5033899;28;20575;-69
2022/03/26 01:38:01;;;;;;;14.20;10.37;;;7.10;75.50;;;;;;5034233;28;20249;-69
2022/03/26 01:40:28;;;;;;;15.68;9.38;;;7.10;75.40;;;;;;5033706;28;20251;-68
2022/03/26 01:42:54;;;;;;;18.05;9.45;;;7.10;75.30;;;;;;5033925;28;20171;-67
2022/03/26 01:45:20;;;;;;;14.15;8.52;;;7.10;75.40;;;;;;5033886;28;20261;-68
2022/03/26 01:47:46;;;;;;;15.27;11.02;;;7.10;75.50;;;;;;5034023;28;20170;-69
2022/03/26 01:50:12;;;;;;;15.03;9.30;;;7.00;75.60;;;;;;5034118;28;20653;-70
2022/03/26 01:52:37;;;;;;;13.10;9.83;;;7.00;75.90;;;;;;5033842;28;20181;-69
2022/03/26 01:55:04;;;;;;;17.43;10.23;;;7.00;76.10;;;;;;5026720;28;20197;-68
2022/03/26 01:57:30;;;;;;;13.65;9.00;;;6.90;76.40;;;;;;5014230;28;20175;-70
2022/03/26 01:59:56;;;;;;;14.77;8.60;;;6.80;76.40;;;;;;5014098;28;20168;-67
2022/03/26 02:02:23;;;;;;;14.93;10.43;;;6.80;76.80;;;;;;5013994;28;20434;-69
2022/03/26 02:04:49;;;;;;;15.68;9.35;;;6.70;77.50;;;;;;5013528;28;20518;-69
2022/03/26 02:07:15;;;;;;;17.50;10.15;;;6.70;77.60;;;;;;5014015;28;20175;-69
2022/03/26 02:09:43;;;;;;;13.70;8.13;;;6.60;77.80;;;;;;5018872;28;20230;-69
2022/03/26 02:12:28;;;;;;;17.45;11.38;;;6.60;78.20;;;;;;5033656;28;20165;-69
2022/03/26 02:14:55;;;;;;;16.17;11.20;;;6.50;78.60;;;;;;5031375;28;20252;-69
2022/03/26 02:17:22;;;;;;;16.77;10.35;;;6.40;79.00;;;;;;5033742;28;20175;-68
2022/03/26 02:19:58;;;;;;;14.48;9.38;;;6.40;80.40;;;;;;5033551;28;20206;-70
2022/03/26 02:22:25;;;;;;;18.77;11.02;;;6.30;80.00;;;;;;5032138;28;20178;-69
2022/03/26 02:24:52;;;;;;;16.75;9.85;;;6.30;80.60;;;;;;5024030;28;20202;-69
2022/03/26 02:27:18;;;;;;;19.92;10.75;;;6.30;81.10;;;;;;5013666;28;20174;-69
2022/03/26 02:29:43;;;;;;;20.15;11.40;;;6.20;81.30;;;;;;5013797;28;20259;-67
2022/03/26 02:32:09;;;;;;;17.13;10.27;;;6.20;81.70;;;;;;5013642;28;20258;-69
2022/03/26 02:34:35;;;;;;;12.67;9.87;;;6.10;82.20;;;;;;5013173;28;20657;-68
2022/03/26 02:37:01;;;;;;;15.77;10.07;;;6.10;82.70;;;;;;5012234;28;20812;-68
2022/03/26 02:39:27;;;;;;;13.33;8.60;;;6.10;83.00;;;;;;5020879;28;20181;-70
2022/03/26 02:41:53;;;;;;;16.15;9.93;;;6.00;83.70;;;;;;5028513;28;20174;-69
2022/03/26 02:44:19;;;;;;;15.30;10.10;;;5.90;85.50;;;;;;5013014;28;20266;-69
2022/03/26 02:46:46;;;;;;;15.77;10.40;;;5.80;86.60;;;;;;5013604;28;20406;-69
2022/03/26 02:49:13;;;;;;;13.02;10.20;;;5.70;87.50;;;;;;5017210;28;20273;-69
2022/03/26 02:51:40;;;;;;;18.25;13.05;;;5.60;87.00;;;;;;5026570;28;20181;-69
2022/03/26 02:54:05;;;;;;;16.50;9.48;;;5.60;88.10;;;;;;5036781;28;20529;-69
2022/03/26 02:56:31;;;;;;;17.23;11.00;;;5.50;88.70;;;;;;5037052;28;20198;-69
2022/03/26 02:58:57;;;;;;;16.60;10.47;;;5.40;90.00;;;;;;5037205;28;20647;-69
2022/03/26 03:01:23;;;;;;;20.83;10.23;;;5.30;90.80;;;;;;5036921;28;20170;-69
2022/03/26 03:03:50;;;;;;;16.80;12.00;;;5.30;91.30;;;;;;5036565;28;20660;-69
2022/03/26 03:06:17;;;;;;;14.65;9.60;;;5.30;91.50;;;;;;5027211;28;20218;-69
2022/03/26 03:08:43;;;;;;;17.40;11.23;;;5.30;91.90;;;;;;5017157;28;20701;-69
2022/03/26 03:11:09;;;;;;;19.23;9.68;;;5.20;92.50;;;;;;5017169;28;20557;-69
2022/03/26 03:13:35;;;;;;;15.97;9.73;;;5.20;92.50;;;;;;5016799;28;20178;-69
2022/03/26 03:16:01;;;;;;;20.77;9.90;;;5.20;92.80;;;;;;5017005;28;20206;-70
2022/03/26 03:18:26;;;;;;;17.57;10.80;;;5.20;93.00;;;;;;5016951;28;20648;-69
2022/03/26 03:20:52;;;;;;;26.23;9.07;;;5.10;93.30;;;;;;5025867;28;20178;-69
2022/03/26 03:23:18;;;;;;;18.10;11.50;;;5.20;93.70;;;;;;5036393;28;20247;-69
2022/03/26 03:25:44;;;;;;;20.90;10.57;;;5.10;94.00;;;;;;5036652;28;20819;-69
2022/03/26 03:28:09;;;;;;;27.67;13.10;;;5.10;94.30;;;;;;5035980;28;20205;-69
2022/03/26 03:30:35;;;;;;;20.47;11.50;;;5.00;95.10;;;;;;5016917;28;20174;-69
2022/03/26 03:33:01;;;;;;;18.83;12.57;;;4.90;95.40;;;;;;5016576;28;20163;-69
2022/03/26 03:35:27;;;;;;;11.50;7.70;;;4.90;95.50;;;;;;5016294;28;20445;-69
2022/03/26 03:37:52;;;;;;;16.70;10.33;;;4.90;95.90;;;;;;5015387;28;20421;-69
2022/03/26 03:40:18;;;;;;;14.00;10.77;;;4.90;96.20;;;;;;5016756;28;20170;-67
2022/03/26 03:42:45;;;;;;;17.27;10.93;;;4.90;96.50;;;;;;5016550;28;20529;-70
2022/03/26 03:45:10;;;;;;;16.35;10.98;;;4.80;96.50;;;;;;5034717;28;20189;-69
2022/03/26 03:47:37;;;;;;;12.88;10.43;;;4.80;96.70;;;;;;5034865;28;20759;-69
2022/03/26 03:50:04;;;;;;;20.10;10.38;;;4.80;97.00;;;;;;5036416;28;20196;-69
2022/03/26 03:52:30;;;;;;;17.45;9.95;;;4.80;97.40;;;;;;5036435;28;20177;-67
2022/03/26 03:54:56;;;;;;;13.30;9.10;;;4.70;97.40;;;;;;5035525;28;20185;-69
2022/03/26 03:57:22;;;;;;;14.40;10.37;;;4.70;97.60;;;;;;5035955;28;20255;-69
2022/03/26 03:59:47;;;;;;;16.20;10.80;;;4.70;97.90;;;;;;5017685;28;20424;-69
2022/03/26 04:02:13;;;;;;;19.63;11.90;;;4.60;98.40;;;;;;5016067;28;20191;-70
2022/03/26 04:04:42;;;;;;;14.90;9.43;;;4.60;98.60;;;;;;5015654;28;20183;-69
2022/03/26 04:07:08;;;;;;;17.05;12.02;;;4.50;98.70;;;;;;5014835;28;20210;-69
2022/03/26 04:09:36;;;;;;;17.38;10.05;;;4.60;98.90;;;;;;5016147;28;20225;-69
2022/03/26 04:12:02;;;;;;;20.25;11.38;;;4.50;99.00;;;;;;5018279;28;20186;-69
2022/03/26 04:14:29;;;;;;;16.08;11.52;;;4.50;99.40;;;;;;5015453;28;20191;-69
2022/03/26 04:16:55;;;;;;;12.20;8.65;;;4.50;99.70;;;;;;5015937;28;20234;-69
2022/03/26 04:19:21;;;;;;;17.50;9.37;;;4.40;99.70;;;;;;5016018;28;20201;-69
2022/03/26 04:21:47;;;;;;;15.53;9.60;;;4.40;99.90;;;;;;5015926;28;20413;-70
2022/03/26 04:24:13;;;;;;;17.33;10.57;;;4.40;99.90;;;;;;5015268;28;20402;-70
2022/03/26 04:26:39;;;;;;;18.23;9.90;;;4.30;99.90;;;;;;5024009;28;20251;-70
2022/03/26 04:29:05;;;;;;;15.40;10.80;;;4.30;99.90;;;;;;5035566;28;20178;-69
2022/03/26 04:31:30;;;;;;;15.67;9.17;;;4.20;99.90;;;;;;5035295;28;20232;-69
2022/03/26 04:34:01;;;;;;;19.97;9.90;;;4.20;99.90;;;;;;5035211;28;20181;-69
2022/03/26 04:36:30;;;;;;;16.65;8.25;;;4.10;99.90;;;;;;5035316;28;20198;-69
2022/03/26 04:38:59;;;;;;;20.77;11.95;;;4.10;99.90;;;;;;5035464;28;20170;-70
2022/03/26 04:41:25;;;;;;;17.52;11.93;;;4.10;99.90;;;;;;5025837;28;20174;-69
2022/03/26 04:43:51;;;;;;;16.48;9.05;;;4.10;99.90;;;;;;5015310;28;20541;-70
2022/03/26 04:46:17;;;;;;;17.20;11.98;;;4.00;99.90;;;;;;5015253;28;20561;-69
2022/03/26 04:48:44;;;;;;;13.40;8.52;;;4.00;99.90;;;;;;5015373;28;20626;-69
2022/03/26 04:51:09;;;;;;;19.83;10.70;;;3.90;99.90;;;;;;5015228;28;20178;-69
2022/03/26 04:53:35;;;;;;;14.00;9.37;;;3.90;99.90;;;;;;5014871;28;20178;-69
2022/03/26 04:56:00;;;;;;;12.43;8.67;;;3.80;99.90;;;;;;5022596;28;20208;-69
2022/03/26 04:58:26;;;;;;;14.77;9.40;;;3.80;99.90;;;;;;5035097;28;20237;-69
2022/03/26 05:00:52;;;;;;;14.67;9.10;;;3.80;99.90;;;;;;5033132;28;20170;-69
2022/03/26 05:03:17;;;;;;;20.00;12.10;;;3.80;99.90;;;;;;5034414;28;20186;-69
2022/03/26 05:05:43;;;;;;;14.13;9.87;;;3.70;99.90;;;;;;5034840;28;20552;-70
2022/03/26 05:08:08;;;;;;;18.77;9.30;;;3.70;99.90;;;;;;5034963;28;20205;-69
2022/03/26 05:10:34;;;;;;;17.27;8.87;;;3.70;99.90;;;;;;5018271;28;20553;-69
2022/03/26 05:13:00;;;;;;;12.07;9.30;;;3.70;99.90;;;;;;5014594;28;20325;-70
2022/03/26 05:15:29;;;;;;;22.80;10.90;;;3.70;99.90;;;;;;5014475;28;20252;-70
2022/03/26 05:17:56;;;;;;;16.20;11.65;;;3.80;99.90;;;;;;5015131;28;20224;-68
2022/03/26 05:20:23;;;;;;;17.85;10.15;;;3.80;99.90;;;;;;5014815;28;20163;-68
2022/03/26 05:22:50;;;;;;;13.85;8.30;;;3.70;99.90;;;;;;5014623;28;20166;-69
2022/03/26 05:25:16;;;;;;;13.43;9.55;;;3.70;99.90;;;;;;5028975;28;20202;-69
2022/03/26 05:27:50;;;;;;;17.67;10.55;;;3.70;99.90;;;;;;5034280;28;20178;-69
2022/03/26 05:30:17;;;;;;;11.95;8.52;;;3.80;99.90;;;;;;5034273;28;20200;-69
2022/03/26 05:32:43;;;;;;;15.60;11.05;;;3.80;99.90;;;;;;5027684;28;20628;-73
2022/03/26 05:35:14;;;;;;;20.20;11.70;;;3.90;99.90;;;;;;5014206;28;20291;-69
2022/03/26 05:37:41;;;;;;;16.05;11.07;;;3.90;99.90;;;;;;5014498;28;20398;-68
2022/03/26 05:40:08;;;;;;;18.75;10.73;;;3.90;99.90;;;;;;5014642;28;20568;-70
2022/03/26 05:42:37;;;;;;;20.10;9.13;;;3.90;99.90;;;;;;5014735;28;20167;-68
2022/03/26 05:45:07;;;;;;;28.40;10.55;;;4.00;99.90;;;;;;5014006;28;20281;-70
2022/03/26 05:47:33;;;;;;;15.02;8.50;;;4.20;99.90;;;;;;5020809;28;20177;-69
2022/03/26 05:49:59;;;;;;;19.52;11.63;;;4.20;99.90;;;;;;5034078;28;20253;-69
2022/03/26 05:52:24;;;;;;;18.55;10.23;;;4.40;99.90;;;;;;5032803;28;20266;-68
2022/03/26 05:54:50;;;;;;;18.70;9.80;;;4.50;99.90;;;;;;5031999;28;20294;-68
2022/03/26 05:57:16;;;;;;;13.00;10.13;;;4.70;99.90;;;;;;5033931;28;20255;-68
2022/03/26 05:59:41;;;;;;;13.93;10.47;;;5.00;99.90;;;;;;5033936;28;20194;-70
2022/03/26 06:02:10;;;;;;;15.13;11.83;;;5.30;99.90;;;;;;5028147;28;20648;-70
2022/03/26 06:04:36;;;;;;;23.70;13.00;;;5.50;99.90;;;;;;5013461;28;20188;-70
2022/03/26 06:07:02;;;;;;;16.37;10.97;;;5.80;99.90;;;;;;5014038;28;20171;-69
2022/03/26 06:09:27;;;;;;;14.00;9.57;;;6.10;99.90;;;;;;5018990;28;20644;-69
2022/03/26 06:11:53;;;;;;;15.40;10.10;;;6.30;99.90;;;;;;5033699;28;20409;-69
2022/03/26 06:14:19;;;;;;;17.10;10.43;;;6.50;99.80;;;;;;5031988;28;20522;-69
2022/03/26 06:16:45;;;;;;;16.20;10.47;;;6.70;99.10;;;;;;5033563;28;20202;-69
2022/03/26 06:19:12;;;;;;;13.02;11.20;;;6.90;98.30;;;;;;5033644;28;20169;-69
2022/03/26 06:21:38;;;;;;;19.90;11.85;;;7.10;97.40;;;;;;5033135;28;20179;-69
2022/03/26 06:24:05;;;;;;;8.90;7.93;;;7.20;97.10;;;;;;5028682;28;20539;-69
2022/03/26 06:26:31;;;;;;;15.73;9.80;;;7.30;96.60;;;;;;5013719;28;20314;-69
2022/03/26 06:28:57;;;;;;;14.87;10.87;;;7.40;96.60;;;;;;5013680;28;20673;-69
2022/03/26 06:31:23;;;;;;;14.60;10.40;;;7.70;95.70;;;;;;5013840;28;20464;-69
2022/03/26 06:33:49;;;;;;;13.88;10.88;;;7.80;95.20;;;;;;5011856;28;20416;-69
2022/03/26 06:36:16;;;;;;;16.60;11.43;;;8.20;94.60;;;;;;5013315;28;20665;-69
2022/03/26 06:38:44;;;;;;;22.90;12.95;;;8.50;93.90;;;;;;5017468;28;20179;-70
2022/03/26 06:41:10;;;;;;;18.30;11.10;;;8.80;93.00;;;;;;5033097;28;20162;-69
2022/03/26 06:43:37;;;;;;;16.48;11.15;;;9.10;92.30;;;;;;5032834;28;20166;-70
2022/03/26 06:46:04;;;;;;;16.48;11.98;;;9.40;92.10;;;;;;5033097;28;20196;-69
2022/03/26 06:48:30;;;;;;;17.73;11.10;;;9.90;91.00;;;;;;5032878;28;20166;-69
2022/03/26 06:50:56;;;;;;;21.42;11.05;;;10.30;89.70;;;;;;5033021;28;20186;-70
2022/03/26 06:53:22;;;;;;;14.87;10.67;;;10.70;87.20;;;;;;5032604;28;20175;-71
2022/03/26 06:55:48;;;;;;;17.53;12.87;;;11.00;84.00;;;;;;5032927;28;20503;-70
2022/03/26 06:58:14;;;;;;;26.93;12.93;;;11.10;83.00;;;;;;5033288;28;20245;-69
2022/03/26 07:00:39;;;;;;;16.97;10.97;;;11.20;82.90;;;;;;5033105;28;20435;-70
2022/03/26 07:03:05;;;;;;;17.27;10.63;;;11.30;82.90;;;;;;5032388;28;20191;-70
2022/03/26 07:05:31;;;;;;;16.83;11.13;;;11.50;81.90;;;;;;5032904;28;20250;-70
2022/03/26 07:07:57;;;;;;;15.70;11.40;;;11.70;81.60;;;;;;5031207;28;20184;-70
2022/03/26 07:10:23;;;;;;;19.63;11.77;;;12.10;80.60;;;;;;5013281;28;20174;-70
2022/03/26 07:12:49;;;;;;;16.53;12.23;;;12.60;79.50;;;;;;5014294;28;20417;-70
2022/03/26 07:15:15;;;;;;;17.27;12.53;;;13.20;77.00;;;;;;5012877;28;20465;-70
2022/03/26 07:17:43;;;;;;;16.50;10.73;;;13.90;75.00;;;;;;5013436;28;20437;-70
2022/03/26 07:20:10;;;;;;;15.47;12.20;;;14.50;73.10;;;;;;5013109;28;20401;-71
2022/03/26 07:22:36;;;;;;;15.40;9.90;;;14.90;71.70;;;;;;5013141;28;20401;-70
2022/03/26 07:25:04;;;;;;;16.50;11.50;;;15.30;69.20;;;;;;5012777;28;20481;-71
2022/03/26 07:27:34;;;;;;;15.23;11.40;;;15.60;68.70;;;;;;5013734;28;20178;-70
2022/03/26 07:30:00;;;;;;;16.23;11.40;;;16.00;66.10;;;;;;5013193;28;20401;-71
2022/03/26 07:32:27;;;;;;;18.77;11.40;;;16.30;64.20;;;;;;5011881;28;20410;-70
2022/03/26 07:34:53;;;;;;;15.60;12.10;;;16.50;62.80;;;;;;5015375;28;20421;-70
2022/03/26 07:37:19;;;;;;;19.43;11.20;;;16.60;60.40;;;;;;5016705;28;20596;-70
2022/03/26 07:39:45;;;;;;;12.83;10.00;;;16.50;59.40;;;;;;5016664;28;20406;-72
2022/03/26 07:42:11;;;;;;;15.27;11.70;;;16.50;60.80;;;;;;5026629;28;20421;-71
2022/03/26 07:44:36;;;;;;;17.10;11.43;;;16.80;58.90;;;;;;5035764;28;20178;-70
2022/03/26 07:47:02;;;;;;;13.53;10.27;;;16.90;58.60;;;;;;5036178;28;20241;-70
2022/03/26 07:49:28;;;;;;;15.80;11.43;;;17.10;58.80;;;;;;5036287;28;20163;-69
2022/03/26 07:51:54;;;;;;;15.87;11.97;;;17.50;57.90;;;;;;5034382;28;20425;-70
2022/03/26 07:54:20;;;;;;;16.47;11.97;;;17.70;57.40;;;;;;5035879;28;20224;-70
2022/03/26 07:56:45;;;;;;;15.33;10.40;;;18.00;57.50;;;;;;5035963;28;20277;-69
2022/03/26 07:59:11;;;;;;;14.17;11.47;;;18.40;56.10;;;;;;5036171;28;20170;-70
2022/03/26 08:01:37;;;;;;;17.57;11.83;;;18.80;55.00;;;;;;5036389;28;20206;-68
2022/03/26 08:04:02;;;;;;;15.40;11.23;;;18.90;54.30;;;;;;5035745;28;20186;-69
2022/03/26 08:06:28;;;;;;;14.50;10.70;;;19.10;54.40;;;;;;5035201;28;20198;-68
2022/03/26 08:08:54;;;;;;;16.83;12.20;;;19.50;53.70;;;;;;5036121;28;20181;-69
2022/03/26 08:11:19;;;;;;;15.17;11.70;;;19.80;52.50;;;;;;5036047;28;20637;-69
2022/03/26 08:13:45;;;;;;;17.60;11.50;;;19.60;51.80;;;;;;5035424;28;20171;-68
2022/03/26 08:16:11;;;;;;;15.60;12.20;;;19.60;52.00;;;;;;5035430;28;20275;-70
2022/03/26 08:18:37;;;;;;;21.60;11.53;;;20.00;51.90;;;;;;5035748;28;20172;-69
2022/03/26 08:21:03;;;;;;;14.00;10.60;;;20.20;50.90;;;;;;5035108;28;20181;-70
2022/03/26 08:23:29;;;;;;;17.70;11.40;;;20.30;50.80;;;;;;5036393;28;20405;-69
2022/03/26 08:28:39;;;;;;;17.33;12.00;;;20.60;51.00;;;;;;5035798;28;20174;-70
2022/03/26 08:31:05;;;;;;;16.00;11.63;;;21.20;50.30;;;;;;5035423;28;20409;-70
2022/03/26 08:33:30;;;;;;;20.17;12.63;;;21.90;49.70;;;;;;5035316;28;20163;-69
2022/03/26 08:35:56;;;;;;;13.87;10.37;;;22.10;48.30;;;;;;5035325;28;20210;-69
2022/03/26 08:38:22;;;;;;;15.80;11.60;;;22.30;48.90;;;;;;5036103;28;20205;-69
2022/03/26 08:40:48;;;;;;;19.13;13.60;;;22.60;48.70;;;;;;5035612;28;20171;-70
2022/03/26 08:43:14;;;;;;;16.70;13.43;;;23.00;48.50;;;;;;5035427;28;20166;-70
2022/03/26 08:45:40;;;;;;;18.50;12.00;;;23.10;47.70;;;;;;5035407;28;20402;-70
2022/03/26 08:48:06;;;;;;;14.37;11.97;;;23.40;47.10;;;;;;5035447;28;20878;-70
2022/03/26 08:50:33;;;;;;;17.33;12.40;;;23.20;47.70;;;;;;5022337;28;20435;-70
2022/03/26 08:52:59;;;;;;;14.90;11.57;;;23.40;46.50;;;;;;5015105;28;20420;-70
2022/03/26 08:55:25;;;;;;;13.90;12.20;;;23.20;46.70;;;;;;5014750;28;20458;-70
2022/03/26 08:57:51;;;;;;;15.97;12.50;;;23.50;47.20;;;;;;5015127;28;20398;-70
2022/03/26 09:00:17;;;;;;;22.13;14.50;;;23.70;46.30;;;;;;5015127;28;20387;-70
2022/03/26 09:02:44;;;;;;;15.10;11.60;;;24.10;46.20;;;;;;5014953;28;20201;-72
2022/03/26 09:05:13;;;;;;;12.53;11.03;;;24.50;46.30;;;;;;5025013;28;20937;-70
2022/03/26 09:07:39;;;;;;;15.50;12.87;;;25.30;45.50;;;;;;5031854;28;20915;-69
2022/03/26 09:10:05;;;;;;;14.47;12.30;;;25.70;44.30;;;;;;5034655;28;20380;-70
2022/03/26 09:12:32;;;;;;;16.00;14.37;;;26.00;44.10;;;;;;5034524;28;20413;-69
2022/03/26 09:14:58;;;;;;;20.70;14.37;;;26.10;44.10;;;;;;5033946;28;20761;-70
2022/03/26 09:17:24;;;;;;;18.23;13.90;;;26.50;43.80;;;;;;5034520;28;20470;-71
2022/03/26 09:19:50;;;;;;;16.77;13.90;;;26.50;43.20;;;;;;5023959;28;20422;-71
2022/03/26 09:22:15;;;;;;;19.30;13.43;;;26.40;43.40;;;;;;5014376;28;20171;-70
2022/03/26 09:24:42;;;;;;;15.57;13.07;;;26.10;43.40;;;;;;5013923;28;20250;-71
2022/03/26 09:27:09;;;;;;;14.77;12.63;;;26.10;43.00;;;;;;5014907;28;20211;-70
2022/03/26 09:29:35;;;;;;;14.40;12.60;;;25.80;43.50;;;;;;5014772;28;20405;-70
2022/03/26 09:32:00;;;;;;;16.97;12.53;;;26.40;43.70;;;;;;5014331;28;20384;-70
2022/03/26 09:34:26;;;;;;;15.40;12.90;;;26.90;44.10;;;;;;5022329;28;20396;-70
2022/03/26 09:36:53;;;;;;;16.37;12.77;;;27.40;44.10;;;;;;5032918;28;20190;-70
2022/03/26 09:39:19;;;;;;;15.23;13.67;;;27.40;42.60;;;;;;5034103;28;20177;-72
2022/03/26 09:41:47;;;;;;;17.03;14.40;;;27.40;43.20;;;;;;5030087;28;20411;-70
2022/03/26 09:44:13;;;;;;;15.70;12.80;;;27.20;42.60;;;;;;5013820;28;20388;-70
2022/03/26 09:46:38;;;;;;;17.53;14.97;;;27.30;42.50;;;;;;5014084;28;20476;-69
2022/03/26 09:49:05;;;;;;;17.90;13.00;;;27.10;41.80;;;;;;5014107;28;20410;-69
2022/03/26 09:51:32;;;;;;;15.80;12.57;;;27.20;41.20;;;;;;5014084;28;20167;-70
2022/03/26 09:53:58;;;;;;;16.23;14.30;;;27.40;41.30;;;;;;5013703;28;20380;-69
2022/03/26 09:56:28;;;;;;;15.70;12.00;;;27.50;40.90;;;;;;5014084;28;20949;-69
2022/03/26 09:58:54;;;;;;;15.80;12.50;;;27.60;41.30;;;;;;5013926;28;20178;-70
2022/03/26 10:01:22;;;;;;;18.33;12.13;;;27.70;40.90;;;;;;5014111;28;20385;-70
2022/03/26 10:04:10;;;;;;;16.83;14.53;;;28.00;40.00;;;;;;5013485;28;20408;-70
2022/03/26 10:06:36;;;;;;;17.23;14.30;;;27.60;40.80;;;;;;5030826;28;20453;-71
2022/03/26 10:09:03;;;;;;;17.87;13.10;;;27.80;40.70;;;;;;5033269;28;20391;-73
2022/03/26 10:11:32;;;;;;;17.57;13.50;;;27.80;40.60;;;;;;5033595;28;20766;-71
2022/03/26 10:13:59;;;;;;;18.47;13.03;;;27.90;39.90;;;;;;5033321;28;20405;-70
2022/03/26 10:16:25;;;;;;;18.57;13.07;;;28.10;39.30;;;;;;5033403;28;20408;-69
2022/03/26 10:18:51;;;;;;;18.07;13.70;;;28.40;38.90;;;;;;5033326;28;20494;-72
2022/03/26 10:21:19;;;;;;;17.30;13.57;;;28.80;38.20;;;;;;5015790;28;20552;-72
2022/03/26 10:23:53;;;;;;;18.87;13.80;;;28.50;37.80;;;;;;5013472;28;20747;-72
2022/03/26 10:26:21;;;;;;;18.03;12.57;;;28.30;38.30;;;;;;5013538;28;20540;-70
2022/03/26 10:28:56;;;;;;;18.60;12.57;;;28.30;37.80;;;;;;5013741;28;20423;-70
2022/03/26 10:34:16;;;;;;;16.70;12.20;;;27.90;37.60;;;;;;5015129;28;20376;-70
2022/03/26 10:36:47;;;;;;;17.40;13.60;;;27.80;37.60;;;;;;5033205;28;20402;-70
2022/03/26 10:39:20;;;;;;;14.10;11.57;;;27.90;37.40;;;;;;5033403;28;20379;-70
2022/03/26 10:41:47;;;;;;;18.20;13.00;;;27.90;37.30;;;;;;5032831;28;20392;-70
2022/03/26 10:44:15;;;;;;;15.23;11.53;;;27.90;37.40;;;;;;5032499;28;20387;-69
2022/03/26 10:46:43;;;;;;;16.20;12.43;;;27.80;36.80;;;;;;5033005;28;20491;-70
2022/03/26 10:49:10;;;;;;;16.17;12.47;;;27.50;37.00;;;;;;5028365;28;20420;-69
2022/03/26 10:51:37;;;;;;;15.93;12.13;;;27.20;36.90;;;;;;5013426;28;20389;-70
2022/03/26 10:54:11;;;;;;;16.50;11.57;;;27.00;37.40;;;;;;5013046;28;20421;-69
2022/03/26 10:56:38;;;;;;;13.30;10.50;;;27.00;38.30;;;;;;5015568;28;20422;-70
2022/03/26 10:59:04;;;;;;;16.70;11.93;;;26.90;37.50;;;;;;5013476;28;20388;-72
2022/03/26 11:01:30;;;;;;;18.37;10.93;;;26.90;37.30;;;;;;5013178;28;20414;-70
2022/03/26 11:03:59;;;;;;;16.83;12.27;;;26.80;37.60;;;;;;5012732;28;20843;-70
2022/03/26 11:06:26;;;;;;;13.70;10.70;;;26.70;38.20;;;;;;5013095;28;20416;-70
2022/03/26 11:08:59;;;;;;;15.83;11.23;;;26.40;37.80;;;;;;5014609;28;20488;-70
2022/03/26 11:11:29;;;;;;;13.50;9.80;;;26.00;36.10;;;;;;5034299;28;20396;-73
2022/03/26 11:14:28;;;;;;;13.27;9.60;;;25.60;35.80;;;;;;5016694;28;20406;-72
2022/03/26 11:17:06;;;;;;;13.70;9.93;;;25.10;36.20;;;;;;5015520;28;20427;-71
2022/03/26 11:20:09;;;;;;;12.50;8.97;;;24.00;36.60;;;;;;5017133;28;20408;-72
2022/03/26 11:23:12;;;;;;;11.90;8.40;;;22.80;36.90;;;;;;5011178;28;20956;-69
2022/03/26 11:26:02;;;;;;;17.47;8.23;;;21.70;37.60;;;;;;5016731;28;20510;-71
2022/03/26 11:28:33;;;;;;;12.97;8.73;;;20.80;38.80;;;;;;5017128;28;20477;-71
2022/03/26 11:31:11;;;;;;;12.17;9.23;;;20.20;39.30;;;;;;5016475;28;20393;-71
2022/03/26 11:33:37;;;;;;;11.33;8.40;;;19.80;40.10;;;;;;5015864;28;20409;-70
2022/03/26 11:36:06;;;;;;;13.57;7.60;;;19.50;40.40;;;;;;5016487;28;20425;-70
2022/03/26 11:38:32;;;;;;;10.17;7.60;;;19.40;40.80;;;;;;5016594;28;20433;-70
2022/03/26 11:41:05;;;;;;;11.13;8.97;;;19.10;40.90;;;;;;5036042;28;20762;-69
2022/03/26 11:43:43;;;;;;;11.20;7.03;;;19.00;41.20;;;;;;5036095;28;20407;-69
2022/03/26 11:52:18;;;;;;;11.40;7.13;;;18.70;41.40;;;;;;5036337;28;20457;-71
2022/03/26 11:54:45;;;;;;;14.07;8.67;;;18.70;40.80;;;;;;5022867;28;20450;-70
2022/03/26 11:57:25;;;;;;;11.90;9.10;;;18.50;41.10;;;;;;5017021;28;20481;-69
2022/03/26 11:59:52;;;;;;;11.83;8.00;;;18.50;42.00;;;;;;5016192;28;20407;-69
2022/03/26 12:02:26;;;;;;;11.90;7.63;;;18.50;41.50;;;;;;5016042;28;20424;-70
2022/03/26 12:04:58;;;;;;;13.50;7.87;;;18.50;40.00;;;;;;5015448;28;20959;-70
2022/03/26 12:07:29;;;;;;;10.60;6.90;;;18.50;39.90;;;;;;5015699;28;20454;-70
2022/03/26 12:10:12;;;;;;;12.73;6.47;;;18.50;40.10;;;;;;5030734;28;20416;-70
2022/03/26 12:13:00;;;;;;;12.30;7.33;;;18.60;40.80;;;;;;5035517;28;20410;-71
2022/03/26 12:15:31;;;;;;;11.07;8.23;;;18.70;41.00;;;;;;5034858;28;20532;-70
2022/03/26 12:18:14;;;;;;;13.83;7.47;;;18.70;42.30;;;;;;5035584;28;20383;-70
2022/03/26 12:20:40;;;;;;;9.13;7.47;;;18.70;42.10;;;;;;5032744;28;20384;-69
2022/03/26 12:23:07;;;;;;;11.17;7.00;;;18.70;42.50;;;;;;5032103;28;20783;-70
2022/03/26 12:25:37;;;;;;;9.70;7.33;;;18.80;41.60;;;;;;5014695;28;20257;-70
2022/03/26 12:28:03;;;;;;;6.63;6.03;;;18.90;39.50;;;;;;5015608;28;20413;-69
2022/03/26 12:30:30;;;;;;;8.80;7.10;;;18.80;38.40;;;;;;5015374;28;20402;-69
2022/03/26 12:32:58;;;;;;;10.70;6.47;;;18.70;39.30;;;;;;5015534;28;20795;-70
2022/03/26 12:35:25;;;;;;;15.60;7.50;;;18.70;39.70;;;;;;5014998;28;20459;-70
2022/03/26 12:37:51;;;;;;;11.87;7.20;;;18.70;39.50;;;;;;5018029;28;20450;-70
2022/03/26 12:40:17;;;;;;;9.33;5.20;;;18.70;39.40;;;;;;5035093;28;20905;-70
2022/03/26 12:42:43;;;;;;;6.17;5.00;;;18.80;38.70;;;;;;5033598;28;20227;-75
2022/03/26 12:45:16;;;;;;;11.00;6.60;;;18.80;39.00;;;;;;5034558;28;20883;-70
2022/03/26 12:47:46;;;;;;;10.30;6.70;;;18.80;38.40;;;;;;5035042;28;20176;-71